createdAt,value
2022-12-18T00:00:13.630Z,-5.82
2022-12-18T00:01:13.783Z,-5.80
2022-12-18T00:02:12.658Z,-5.80
2022-12-18T00:03:12.902Z,-5.76
2022-12-18T00:04:12.817Z,-5.74
2022-12-18T00:05:12.664Z,-5.76
2022-12-18T00:06:12.623Z,-5.76
2022-12-18T00:07:12.637Z,-5.80
2022-12-18T00:08:12.596Z,-5.87
2022-12-18T00:09:12.653Z,-5.90
2022-12-18T00:10:15.256Z,-5.91
2022-12-18T00:11:13.377Z,-5.92
2022-12-18T00:13:12.590Z,-5.94
2022-12-18T00:14:12.544Z,-5.97
2022-12-18T00:15:12.563Z,-5.97
2022-12-18T00:16:12.609Z,-6.00
2022-12-18T00:17:12.537Z,-5.98
2022-12-18T00:18:16.061Z,-6.01
2022-12-18T00:19:13.525Z,-6.01
2022-12-18T00:20:12.508Z,-5.98
2022-12-18T00:21:12.510Z,-5.95
2022-12-18T00:22:13.421Z,-5.95
2022-12-18T00:23:12.480Z,-5.95
2022-12-18T00:24:12.517Z,-5.98
2022-12-18T00:25:12.549Z,-5.95
2022-12-18T00:26:12.429Z,-5.97
2022-12-18T00:27:12.430Z,-6.01
2022-12-18T00:28:13.358Z,-6.05
2022-12-18T00:29:12.449Z,-6.09
2022-12-18T00:30:12.400Z,-6.12
2022-12-18T00:31:12.486Z,-6.13
2022-12-18T00:32:12.362Z,-6.13
2022-12-18T00:33:13.841Z,-6.18
2022-12-18T00:34:12.342Z,-6.19
2022-12-18T00:35:12.376Z,-6.19
2022-12-18T00:36:12.332Z,-6.15
2022-12-18T00:37:16.820Z,-6.16
2022-12-18T00:38:13.302Z,-6.18
2022-12-18T00:39:12.308Z,-6.19
2022-12-18T00:40:12.296Z,-6.18
2022-12-18T00:41:12.315Z,-6.21
2022-12-18T00:42:12.262Z,-6.21
2022-12-18T00:43:12.271Z,-6.21
2022-12-18T00:44:13.193Z,-6.19
2022-12-18T00:45:13.194Z,-6.16
2022-12-18T00:46:12.284Z,-6.21
2022-12-18T00:47:12.222Z,-6.21
2022-12-18T00:48:12.203Z,-6.23
2022-12-18T00:49:12.215Z,-6.24
2022-12-18T00:50:12.180Z,-6.24
2022-12-18T00:51:12.213Z,-6.23
2022-12-18T00:52:12.179Z,-6.21
2022-12-18T00:53:12.179Z,-6.21
2022-12-18T00:54:12.146Z,-6.21
2022-12-18T00:55:12.155Z,-6.21
2022-12-18T00:56:12.123Z,-6.21
2022-12-18T00:57:12.160Z,-6.23
2022-12-18T00:58:12.105Z,-6.27
2022-12-18T00:59:12.131Z,-6.29
2022-12-18T01:00:12.471Z,-6.31
2022-12-18T01:01:12.187Z,-6.33
2022-12-18T01:02:12.155Z,-6.34
2022-12-18T01:03:12.153Z,-6.36
2022-12-18T01:04:12.046Z,-6.37
2022-12-18T01:05:12.157Z,-6.37
2022-12-18T01:06:12.035Z,-6.39
2022-12-18T01:07:12.044Z,-6.34
2022-12-18T01:08:12.007Z,-6.36
2022-12-18T01:09:12.007Z,-6.36
2022-12-18T01:10:11.984Z,-6.34
2022-12-18T01:11:11.997Z,-6.33
2022-12-18T01:12:11.987Z,-6.34
2022-12-18T01:13:11.990Z,-6.36
2022-12-18T01:14:11.937Z,-6.36
2022-12-18T01:15:11.957Z,-6.34
2022-12-18T01:16:11.981Z,-6.31
2022-12-18T01:17:11.951Z,-6.34
2022-12-18T01:18:11.907Z,-6.34
2022-12-18T01:19:11.905Z,-6.39
2022-12-18T01:20:11.889Z,-6.42
2022-12-18T01:21:11.892Z,-6.44
2022-12-18T01:22:11.890Z,-6.42
2022-12-18T01:23:11.903Z,-6.42
2022-12-18T01:24:11.836Z,-6.44
2022-12-18T01:25:11.848Z,-6.48
2022-12-18T01:26:11.823Z,-6.48
2022-12-18T01:27:11.839Z,-6.45
2022-12-18T01:28:12.758Z,-6.45
2022-12-18T01:29:11.823Z,-6.45
2022-12-18T01:30:11.781Z,-6.45
2022-12-18T01:31:11.883Z,-6.47
2022-12-18T01:32:11.800Z,-6.47
2022-12-18T01:33:11.786Z,-6.48
2022-12-18T01:34:11.761Z,-6.50
2022-12-18T01:35:11.748Z,-6.50
2022-12-18T01:36:11.716Z,-6.50
2022-12-18T01:37:11.734Z,-6.50
2022-12-18T01:38:11.703Z,-6.51
2022-12-18T01:39:11.728Z,-6.51
2022-12-18T01:40:11.681Z,-6.54
2022-12-18T01:41:11.690Z,-6.54
2022-12-18T01:42:11.651Z,-6.59
2022-12-18T01:43:11.683Z,-6.63
2022-12-18T01:44:11.637Z,-6.66
2022-12-18T01:45:11.719Z,-6.67
2022-12-18T01:46:11.686Z,-6.67
2022-12-18T01:47:11.670Z,-6.69
2022-12-18T01:48:11.594Z,-6.67
2022-12-18T01:49:12.577Z,-6.67
2022-12-18T01:50:11.581Z,-6.67
2022-12-18T01:51:11.591Z,-6.69
2022-12-18T01:52:11.581Z,-6.69
2022-12-18T01:53:11.596Z,-6.69
2022-12-18T01:54:11.566Z,-6.69
2022-12-18T01:55:11.544Z,-6.69
2022-12-18T01:56:11.520Z,-6.70
2022-12-18T01:57:11.534Z,-6.71
2022-12-18T01:58:11.499Z,-6.71
2022-12-18T01:59:11.522Z,-6.71
2022-12-18T02:00:11.466Z,-6.74
2022-12-18T02:01:11.544Z,-6.79
2022-12-18T02:02:11.592Z,-6.81
2022-12-18T02:03:12.022Z,-6.84
2022-12-18T02:04:11.446Z,-6.87
2022-12-18T02:05:11.456Z,-6.90
2022-12-18T02:06:11.407Z,-6.94
2022-12-18T02:07:11.455Z,-6.91
2022-12-18T02:08:11.386Z,-6.91
2022-12-18T02:09:11.397Z,-6.90
2022-12-18T02:10:11.398Z,-6.90
2022-12-18T02:11:11.388Z,-6.90
2022-12-18T02:12:11.367Z,-6.87
2022-12-18T02:13:11.375Z,-6.87
2022-12-18T02:14:12.799Z,-6.88
2022-12-18T02:15:11.350Z,-6.90
2022-12-18T02:16:11.334Z,-6.91
2022-12-18T02:17:11.340Z,-6.91
2022-12-18T02:18:11.374Z,-6.91
2022-12-18T02:19:11.308Z,-6.92
2022-12-18T02:20:11.279Z,-6.91
2022-12-18T02:21:11.282Z,-6.91
2022-12-18T02:22:11.275Z,-6.91
2022-12-18T02:23:11.267Z,-6.90
2022-12-18T02:24:11.237Z,-6.90
2022-12-18T02:25:11.268Z,-6.91
2022-12-18T02:26:11.275Z,-6.92
2022-12-18T02:27:11.248Z,-6.94
2022-12-18T02:28:11.190Z,-6.95
2022-12-18T02:29:11.223Z,-6.94
2022-12-18T02:30:11.176Z,-6.92
2022-12-18T02:31:11.241Z,-6.94
2022-12-18T02:32:11.172Z,-6.94
2022-12-18T02:33:11.169Z,-6.90
2022-12-18T02:34:11.156Z,-6.90
2022-12-18T02:35:11.170Z,-6.91
2022-12-18T02:36:11.121Z,-6.90
2022-12-18T02:37:11.122Z,-6.90
2022-12-18T02:38:11.095Z,-6.90
2022-12-18T02:39:11.112Z,-6.90
2022-12-18T02:40:11.071Z,-6.90
2022-12-18T02:41:11.123Z,-6.94
2022-12-18T02:42:11.074Z,-6.92
2022-12-18T02:43:11.072Z,-6.92
2022-12-18T02:44:11.052Z,-6.99
2022-12-18T02:45:11.082Z,-7.02
2022-12-18T02:46:11.051Z,-7.03
2022-12-18T02:47:11.822Z,-7.06
2022-12-18T02:48:10.997Z,-7.08
2022-12-18T02:49:11.973Z,-7.06
2022-12-18T02:50:11.007Z,-7.05
2022-12-18T02:51:10.954Z,-7.06
2022-12-18T02:52:10.970Z,-7.05
2022-12-18T02:53:10.947Z,-7.06
2022-12-18T02:54:10.980Z,-7.03
2022-12-18T02:55:10.924Z,-7.05
2022-12-18T02:56:10.973Z,-7.08
2022-12-18T02:57:10.930Z,-7.10
2022-12-18T02:58:10.936Z,-7.09
2022-12-18T02:59:10.887Z,-7.10
2022-12-18T03:00:10.907Z,-7.13
2022-12-18T03:01:10.930Z,-7.15
2022-12-18T03:02:11.031Z,-7.08
2022-12-18T03:03:10.927Z,-7.05
2022-12-18T03:04:10.860Z,-7.03
2022-12-18T03:05:10.816Z,-7.00
2022-12-18T03:06:10.848Z,-7.00
2022-12-18T03:07:10.799Z,-7.00
2022-12-18T03:08:10.814Z,-6.99
2022-12-18T03:09:10.782Z,-6.99
2022-12-18T03:10:10.795Z,-6.95
2022-12-18T03:11:10.783Z,-6.95
2022-12-18T03:12:10.777Z,-6.94
2022-12-18T03:13:10.735Z,-6.95
2022-12-18T03:14:10.777Z,-6.97
2022-12-18T03:15:16.006Z,-6.97
2022-12-18T03:16:11.748Z,-6.97
2022-12-18T03:17:10.707Z,-7.00
2022-12-18T03:18:11.668Z,-7.00
2022-12-18T03:19:10.676Z,-7.03
2022-12-18T03:20:11.644Z,-7.05
2022-12-18T03:21:10.658Z,-7.02
2022-12-18T03:22:10.714Z,-7.02
2022-12-18T03:23:10.654Z,-6.97
2022-12-18T03:24:10.658Z,-7.00
2022-12-18T03:25:10.634Z,-7.00
2022-12-18T03:26:10.630Z,-7.02
2022-12-18T03:27:10.617Z,-7.06
2022-12-18T03:28:10.648Z,-7.10
2022-12-18T03:29:10.601Z,-7.12
2022-12-18T03:30:10.603Z,-7.13
2022-12-18T03:31:10.716Z,-7.15
2022-12-18T03:32:10.573Z,-7.20
2022-12-18T03:33:10.539Z,-7.20
2022-12-18T03:34:10.569Z,-7.21
2022-12-18T03:35:10.513Z,-7.24
2022-12-18T03:36:10.533Z,-7.23
2022-12-18T03:37:10.504Z,-7.26
2022-12-18T03:38:10.511Z,-7.27
2022-12-18T03:39:10.503Z,-7.30
2022-12-18T03:40:10.505Z,-7.29
2022-12-18T03:41:10.470Z,-7.30
2022-12-18T03:42:10.482Z,-7.29
2022-12-18T03:43:10.434Z,-7.26
2022-12-18T03:44:10.468Z,-7.24
2022-12-18T03:45:10.446Z,-7.21
2022-12-18T03:46:10.515Z,-7.16
2022-12-18T03:47:10.422Z,-7.13
2022-12-18T03:48:10.415Z,-7.10
2022-12-18T03:49:10.385Z,-7.10
2022-12-18T03:50:13.039Z,-7.09
2022-12-18T03:51:10.373Z,-7.10
2022-12-18T03:52:10.451Z,-7.13
2022-12-18T03:53:10.366Z,-7.13
2022-12-18T03:54:10.363Z,-7.16
2022-12-18T03:55:10.323Z,-7.19
2022-12-18T03:56:10.353Z,-7.20
2022-12-18T03:57:10.296Z,-7.21
2022-12-18T03:58:10.338Z,-7.23
2022-12-18T03:59:10.295Z,-7.23
2022-12-18T04:00:10.322Z,-7.20
2022-12-18T04:01:10.313Z,-7.20
2022-12-18T04:02:11.433Z,-7.16
2022-12-18T04:03:10.367Z,-7.23
2022-12-18T04:04:10.294Z,-7.23
2022-12-18T04:05:10.225Z,-7.24
2022-12-18T04:06:10.242Z,-7.23
2022-12-18T04:07:10.197Z,-7.21
2022-12-18T04:08:10.230Z,-7.21
2022-12-18T04:09:10.182Z,-7.21
2022-12-18T04:10:10.195Z,-7.20
2022-12-18T04:11:10.170Z,-7.20
2022-12-18T04:12:10.185Z,-7.20
2022-12-18T04:13:10.149Z,-7.20
2022-12-18T04:14:14.439Z,-7.16
2022-12-18T04:15:11.120Z,-7.19
2022-12-18T04:16:10.208Z,-7.16
2022-12-18T04:17:10.106Z,-7.16
2022-12-18T04:18:10.124Z,-7.19
2022-12-18T04:19:10.098Z,-7.20
2022-12-18T04:20:10.103Z,-7.19
2022-12-18T04:21:10.072Z,-7.21
2022-12-18T04:22:10.084Z,-7.23
2022-12-18T04:23:10.042Z,-7.27
2022-12-18T04:24:11.034Z,-7.27
2022-12-18T04:25:10.019Z,-7.29
2022-12-18T04:26:10.040Z,-7.30
2022-12-18T04:27:09.998Z,-7.27
2022-12-18T04:28:10.042Z,-7.30
2022-12-18T04:29:09.998Z,-7.29
2022-12-18T04:30:10.004Z,-7.27
2022-12-18T04:31:10.056Z,-7.29
2022-12-18T04:32:09.975Z,-7.34
2022-12-18T04:33:09.962Z,-7.37
2022-12-18T04:34:09.952Z,-7.38
2022-12-18T04:35:09.959Z,-7.39
2022-12-18T04:36:09.969Z,-7.41
2022-12-18T04:37:09.908Z,-7.42
2022-12-18T04:38:09.922Z,-7.44
2022-12-18T04:39:09.891Z,-7.44
2022-12-18T04:40:09.910Z,-7.45
2022-12-18T04:41:09.897Z,-7.51
2022-12-18T04:42:09.873Z,-7.49
2022-12-18T04:43:09.966Z,-7.48
2022-12-18T04:44:09.864Z,-7.49
2022-12-18T04:45:09.857Z,-7.49
2022-12-18T04:46:10.859Z,-7.47
2022-12-18T04:47:09.808Z,-7.48
2022-12-18T04:48:09.813Z,-7.47
2022-12-18T04:49:09.795Z,-7.45
2022-12-18T04:50:09.817Z,-7.45
2022-12-18T04:51:09.773Z,-7.47
2022-12-18T04:52:09.806Z,-7.47
2022-12-18T04:53:09.746Z,-7.47
2022-12-18T04:54:09.769Z,-7.49
2022-12-18T04:55:10.704Z,-7.51
2022-12-18T04:56:09.738Z,-7.54
2022-12-18T04:57:09.706Z,-7.54
2022-12-18T04:58:09.728Z,-7.58
2022-12-18T04:59:09.695Z,-7.59
2022-12-18T05:00:09.705Z,-7.66
2022-12-18T05:01:09.668Z,-7.65
2022-12-18T05:02:09.817Z,-7.68
2022-12-18T05:03:09.649Z,-7.74
2022-12-18T05:04:09.706Z,-7.79
2022-12-18T05:05:09.626Z,-7.84
2022-12-18T05:06:09.670Z,-7.87
2022-12-18T05:07:09.609Z,-7.84
2022-12-18T05:08:10.578Z,-7.86
2022-12-18T05:09:09.603Z,-7.84
2022-12-18T05:10:09.615Z,-7.83
2022-12-18T05:11:09.572Z,-7.83
2022-12-18T05:12:09.586Z,-7.83
2022-12-18T05:13:09.568Z,-7.86
2022-12-18T05:14:09.556Z,-7.86
2022-12-18T05:15:09.549Z,-7.91
2022-12-18T05:16:09.607Z,-7.88
2022-12-18T05:17:09.509Z,-7.90
2022-12-18T05:18:09.536Z,-7.88
2022-12-18T05:19:09.496Z,-7.98
2022-12-18T05:20:09.531Z,-8.03
2022-12-18T05:21:09.484Z,-8.05
2022-12-18T05:22:09.484Z,-8.08
2022-12-18T05:23:09.440Z,-8.06
2022-12-18T05:24:09.455Z,-8.08
2022-12-18T05:25:09.432Z,-8.09
2022-12-18T05:26:09.455Z,-8.09
2022-12-18T05:27:09.411Z,-8.10
2022-12-18T05:28:09.430Z,-8.08
2022-12-18T05:29:09.394Z,-8.09
2022-12-18T05:30:09.436Z,-8.08
2022-12-18T05:31:09.391Z,-8.06
2022-12-18T05:32:09.385Z,-8.09
2022-12-18T05:33:09.371Z,-8.08
2022-12-18T05:34:09.376Z,-8.10
2022-12-18T05:35:09.332Z,-8.10
2022-12-18T05:36:09.352Z,-8.20
2022-12-18T05:37:09.310Z,-8.26
2022-12-18T05:38:09.344Z,-8.26
2022-12-18T05:39:09.294Z,-8.26
2022-12-18T05:40:09.345Z,-8.24
2022-12-18T05:41:09.292Z,-8.21
2022-12-18T05:42:09.286Z,-8.21
2022-12-18T05:43:09.254Z,-8.19
2022-12-18T05:44:09.283Z,-8.20
2022-12-18T05:45:09.226Z,-8.17
2022-12-18T05:46:09.356Z,-8.17
2022-12-18T05:47:09.213Z,-8.17
2022-12-18T05:48:09.230Z,-8.17
2022-12-18T05:49:09.204Z,-8.17
2022-12-18T05:50:09.196Z,-8.16
2022-12-18T05:51:09.175Z,-8.19
2022-12-18T05:52:09.195Z,-8.17
2022-12-18T05:53:09.165Z,-8.20
2022-12-18T05:54:09.165Z,-8.21
2022-12-18T05:55:09.166Z,-8.23
2022-12-18T05:56:09.148Z,-8.23
2022-12-18T05:57:09.119Z,-8.20
2022-12-18T05:58:09.114Z,-8.20
2022-12-18T05:59:09.126Z,-8.21
2022-12-18T06:00:10.079Z,-8.23
2022-12-18T06:01:09.084Z,-8.20
2022-12-18T06:02:09.246Z,-8.20
2022-12-18T06:03:09.161Z,-8.20
2022-12-18T06:04:09.107Z,-8.23
2022-12-18T06:05:09.054Z,-8.24
2022-12-18T06:06:09.061Z,-8.24
2022-12-18T06:07:09.024Z,-8.26
2022-12-18T06:08:09.037Z,-8.27
2022-12-18T06:09:09.019Z,-8.26
2022-12-18T06:10:08.999Z,-8.26
2022-12-18T06:11:08.979Z,-8.27
2022-12-18T06:12:09.008Z,-8.26
2022-12-18T06:13:08.960Z,-8.29
2022-12-18T06:14:08.968Z,-8.29
2022-12-18T06:15:08.929Z,-8.27
2022-12-18T06:16:09.011Z,-8.26
2022-12-18T06:17:08.928Z,-8.27
2022-12-18T06:18:08.921Z,-8.29
2022-12-18T06:19:08.909Z,-8.31
2022-12-18T06:20:08.924Z,-8.32
2022-12-18T06:21:08.904Z,-8.35
2022-12-18T06:22:08.891Z,-8.35
2022-12-18T06:23:08.860Z,-8.35
2022-12-18T06:24:08.891Z,-8.37
2022-12-18T06:25:08.830Z,-8.37
2022-12-18T06:26:08.850Z,-8.37
2022-12-18T06:27:08.812Z,-8.35
2022-12-18T06:28:08.820Z,-8.34
2022-12-18T06:29:08.802Z,-8.35
2022-12-18T06:30:08.829Z,-8.38
2022-12-18T06:31:08.791Z,-8.38
2022-12-18T06:32:08.789Z,-8.39
2022-12-18T06:33:08.775Z,-8.41
2022-12-18T06:34:08.777Z,-8.41
2022-12-18T06:35:08.737Z,-8.41
2022-12-18T06:36:08.770Z,-8.41
2022-12-18T06:37:08.708Z,-8.44
2022-12-18T06:38:08.769Z,-8.44
2022-12-18T06:39:08.693Z,-8.44
2022-12-18T06:40:08.740Z,-8.41
2022-12-18T06:41:09.619Z,-8.44
2022-12-18T06:42:08.698Z,-8.42
2022-12-18T06:43:08.673Z,-8.44
2022-12-18T06:44:08.648Z,-8.42
2022-12-18T06:45:08.670Z,-8.44
2022-12-18T06:46:08.676Z,-8.41
2022-12-18T06:47:08.645Z,-8.39
2022-12-18T06:48:08.608Z,-8.39
2022-12-18T06:49:08.682Z,-8.41
2022-12-18T06:50:08.596Z,-8.39
2022-12-18T06:51:08.613Z,-8.42
2022-12-18T06:52:08.573Z,-8.39
2022-12-18T06:53:08.592Z,-8.41
2022-12-18T06:54:08.565Z,-8.39
2022-12-18T06:55:08.568Z,-8.38
2022-12-18T06:56:10.670Z,-8.38
2022-12-18T06:57:08.546Z,-8.38
2022-12-18T06:58:08.526Z,-8.39
2022-12-18T06:59:08.590Z,-8.39
2022-12-18T07:00:08.490Z,-8.41
2022-12-18T07:01:08.560Z,-8.41
2022-12-18T07:02:08.584Z,-8.42
2022-12-18T07:03:08.535Z,-8.44
2022-12-18T07:04:09.416Z,-8.45
2022-12-18T07:05:10.957Z,-8.42
2022-12-18T07:06:08.433Z,-8.45
2022-12-18T07:07:08.456Z,-8.44
2022-12-18T07:08:08.408Z,-8.47
2022-12-18T07:09:08.425Z,-8.48
2022-12-18T07:10:08.438Z,-8.50
2022-12-18T07:11:08.433Z,-8.52
2022-12-18T07:12:08.384Z,-8.53
2022-12-18T07:13:08.383Z,-8.55
2022-12-18T07:14:08.342Z,-8.56
2022-12-18T07:15:08.357Z,-8.55
2022-12-18T07:16:15.054Z,-8.56
2022-12-18T07:17:09.550Z,-8.56
2022-12-18T07:18:08.323Z,-8.55
2022-12-18T07:19:08.337Z,-8.58
2022-12-18T07:20:08.295Z,-8.58
2022-12-18T07:21:08.301Z,-8.58
2022-12-18T07:22:08.294Z,-8.56
2022-12-18T07:23:08.281Z,-8.56
2022-12-18T07:24:08.260Z,-8.55
2022-12-18T07:25:08.268Z,-8.53
2022-12-18T07:26:08.230Z,-8.52
2022-12-18T07:27:08.260Z,-8.50
2022-12-18T07:28:10.598Z,-8.47
2022-12-18T07:29:09.228Z,-8.47
2022-12-18T07:30:08.203Z,-8.42
2022-12-18T07:31:08.209Z,-8.41
2022-12-18T07:32:08.252Z,-8.38
2022-12-18T07:33:08.199Z,-8.38
2022-12-18T07:34:08.162Z,-8.39
2022-12-18T07:35:08.178Z,-8.39
2022-12-18T07:36:08.153Z,-8.41
2022-12-18T07:37:08.153Z,-8.42
2022-12-18T07:38:08.115Z,-8.42
2022-12-18T07:39:08.130Z,-8.39
2022-12-18T07:40:08.108Z,-8.38
2022-12-18T07:41:08.112Z,-8.39
2022-12-18T07:42:08.074Z,-8.39
2022-12-18T07:43:08.105Z,-8.39
2022-12-18T07:44:08.056Z,-8.42
2022-12-18T07:45:08.069Z,-8.42
2022-12-18T07:46:08.111Z,-8.44
2022-12-18T07:47:11.972Z,-8.44
2022-12-18T07:48:08.014Z,-8.45
2022-12-18T07:49:08.051Z,-8.45
2022-12-18T07:50:07.994Z,-8.47
2022-12-18T07:51:08.034Z,-8.47
2022-12-18T07:52:07.977Z,-8.48
2022-12-18T07:53:07.988Z,-8.48
2022-12-18T07:54:08.036Z,-8.50
2022-12-18T07:55:07.976Z,-8.48
2022-12-18T07:57:21.316Z,-8.50
2022-12-18T07:58:08.911Z,-8.47
2022-12-18T07:59:07.949Z,-8.45
2022-12-18T08:00:07.901Z,-8.42
2022-12-18T08:01:08.031Z,-8.41
2022-12-18T08:02:08.074Z,-8.41
2022-12-18T08:03:07.947Z,-8.39
2022-12-18T08:04:07.890Z,-8.37
2022-12-18T08:05:07.885Z,-8.34
2022-12-18T08:06:07.844Z,-8.29
2022-12-18T08:07:07.848Z,-8.24
2022-12-18T08:08:07.836Z,-8.19
2022-12-18T08:09:07.860Z,-8.14
2022-12-18T08:10:07.804Z,-8.10
2022-12-18T08:11:07.819Z,-8.08
2022-12-18T08:12:07.778Z,-8.02
2022-12-18T08:13:07.803Z,-7.97
2022-12-18T08:14:07.777Z,-7.94
2022-12-18T08:15:07.766Z,-7.90
2022-12-18T08:16:07.927Z,-7.91
2022-12-18T08:17:07.770Z,-7.88
2022-12-18T08:18:12.673Z,-7.86
2022-12-18T08:19:08.742Z,-7.83
2022-12-18T08:20:07.704Z,-7.81
2022-12-18T08:21:07.734Z,-7.77
2022-12-18T08:22:07.676Z,-7.76
2022-12-18T08:23:07.707Z,-7.68
2022-12-18T08:24:07.656Z,-7.66
2022-12-18T08:25:07.681Z,-7.65
2022-12-18T08:26:07.652Z,-7.58
2022-12-18T08:28:08.678Z,-7.52
2022-12-18T08:29:07.640Z,-7.49
2022-12-18T08:30:07.613Z,-7.48
2022-12-18T08:31:07.690Z,-7.47
2022-12-18T08:32:07.678Z,-7.45
2022-12-18T08:33:07.634Z,-7.41
2022-12-18T08:34:07.553Z,-7.38
2022-12-18T08:35:07.569Z,-7.34
2022-12-18T08:36:07.536Z,-7.30
2022-12-18T08:37:07.563Z,-7.27
2022-12-18T08:38:07.539Z,-7.23
2022-12-18T08:39:07.598Z,-7.20
2022-12-18T08:40:07.514Z,-7.13
2022-12-18T08:41:07.548Z,-7.10
2022-12-18T08:42:10.318Z,-7.05
2022-12-18T08:43:07.516Z,-7.00
2022-12-18T08:44:07.483Z,-6.97
2022-12-18T08:45:07.486Z,-6.94
2022-12-18T08:46:07.496Z,-6.92
2022-12-18T08:47:07.455Z,-6.88
2022-12-18T08:48:07.441Z,-6.82
2022-12-18T08:49:07.445Z,-6.81
2022-12-18T08:50:07.412Z,-6.76
2022-12-18T08:51:07.415Z,-6.70
2022-12-18T08:52:07.429Z,-6.66
2022-12-18T08:53:07.395Z,-6.61
2022-12-18T08:54:07.363Z,-6.54
2022-12-18T08:55:07.393Z,-6.50
2022-12-18T08:56:07.346Z,-6.44
2022-12-18T08:57:07.382Z,-6.40
2022-12-18T08:58:07.323Z,-6.40
2022-12-18T08:59:08.320Z,-6.40
2022-12-18T09:00:07.335Z,-6.37
2022-12-18T09:01:07.413Z,-6.36
2022-12-18T09:02:07.635Z,-6.33
2022-12-18T09:03:07.332Z,-6.33
2022-12-18T09:04:07.627Z,-6.30
2022-12-18T09:05:07.292Z,-6.23
2022-12-18T09:06:07.251Z,-6.23
2022-12-18T09:07:07.318Z,-6.18
2022-12-18T09:08:07.217Z,-6.13
2022-12-18T09:09:07.265Z,-6.13
2022-12-18T09:10:07.208Z,-6.12
2022-12-18T09:11:07.248Z,-6.09
2022-12-18T09:12:07.183Z,-6.09
2022-12-18T09:13:07.242Z,-6.01
2022-12-18T09:14:07.183Z,-6.01
2022-12-18T09:15:07.196Z,-5.98
2022-12-18T09:16:07.160Z,-5.98
2022-12-18T09:17:07.200Z,-5.94
2022-12-18T09:18:07.119Z,-5.91
2022-12-18T09:19:07.170Z,-5.88
2022-12-18T09:20:07.114Z,-5.87
2022-12-18T09:21:07.117Z,-5.83
2022-12-18T09:22:07.084Z,-5.82
2022-12-18T09:23:07.093Z,-5.76
2022-12-18T09:24:08.759Z,-5.72
2022-12-18T09:25:07.078Z,-5.70
2022-12-18T09:26:07.044Z,-5.65
2022-12-18T09:27:07.066Z,-5.63
2022-12-18T09:28:07.013Z,-5.59
2022-12-18T09:29:07.063Z,-5.56
2022-12-18T09:30:06.994Z,-5.52
2022-12-18T09:31:07.044Z,-5.47
2022-12-18T09:32:06.983Z,-5.49
2022-12-18T09:33:07.011Z,-5.45
2022-12-18T09:34:06.973Z,-5.44
2022-12-18T09:35:06.973Z,-5.44
2022-12-18T09:36:06.939Z,-5.43
2022-12-18T09:37:06.988Z,-5.44
2022-12-18T09:38:06.925Z,-5.43
2022-12-18T09:39:08.840Z,-5.43
2022-12-18T09:40:06.927Z,-5.41
2022-12-18T09:41:06.885Z,-5.38
2022-12-18T09:42:06.924Z,-5.38
2022-12-18T09:43:07.412Z,-5.38
2022-12-18T09:44:06.871Z,-5.38
2022-12-18T09:45:06.865Z,-5.37
2022-12-18T09:46:06.906Z,-5.37
2022-12-18T09:47:06.838Z,-5.37
2022-12-18T09:48:06.859Z,-5.37
2022-12-18T09:49:06.806Z,-5.38
2022-12-18T09:50:06.826Z,-5.37
2022-12-18T09:51:06.805Z,-5.35
2022-12-18T09:52:06.805Z,-5.31
2022-12-18T09:53:06.760Z,-5.30
2022-12-18T09:54:06.791Z,-5.25
2022-12-18T09:55:06.750Z,-5.23
2022-12-18T09:56:06.756Z,-5.20
2022-12-18T09:57:06.719Z,-5.19
2022-12-18T09:58:06.739Z,-5.17
2022-12-18T09:59:06.744Z,-5.14
2022-12-18T10:00:06.718Z,-5.11
2022-12-18T10:01:06.714Z,-5.05
2022-12-18T10:02:06.931Z,-4.98
2022-12-18T10:03:06.731Z,-4.89
2022-12-18T10:04:06.781Z,-4.87
2022-12-18T10:05:06.660Z,-4.83
2022-12-18T10:06:07.624Z,-4.82
2022-12-18T10:07:09.292Z,-4.82
2022-12-18T10:08:06.652Z,-4.83
2022-12-18T10:09:06.616Z,-4.85
2022-12-18T10:10:06.619Z,-4.85
2022-12-18T10:11:06.590Z,-4.82
2022-12-18T10:12:07.113Z,-4.82
2022-12-18T10:13:06.570Z,-4.80
2022-12-18T10:14:06.579Z,-4.79
2022-12-18T10:15:06.546Z,-4.75
2022-12-18T10:16:06.600Z,-4.73
2022-12-18T10:17:06.547Z,-4.71
2022-12-18T10:18:06.549Z,-4.66
2022-12-18T10:19:06.516Z,-4.68
2022-12-18T10:20:06.519Z,-4.65
2022-12-18T10:21:06.493Z,-4.62
2022-12-18T10:22:07.448Z,-4.58
2022-12-18T10:23:06.470Z,-4.58
2022-12-18T10:24:06.466Z,-4.58
2022-12-18T10:25:06.455Z,-4.57
2022-12-18T10:26:06.460Z,-4.55
2022-12-18T10:27:06.412Z,-4.48
2022-12-18T10:28:06.426Z,-4.43
2022-12-18T10:29:06.417Z,-4.38
2022-12-18T10:30:06.409Z,-4.36
2022-12-18T10:31:06.416Z,-4.30
2022-12-18T10:32:06.387Z,-4.28
2022-12-18T10:33:06.364Z,-4.25
2022-12-18T10:34:06.376Z,-4.25
2022-12-18T10:35:06.328Z,-4.22
2022-12-18T10:36:06.355Z,-4.19
2022-12-18T10:37:06.325Z,-4.15
2022-12-18T10:38:06.342Z,-4.12
2022-12-18T10:39:06.314Z,-4.09
2022-12-18T10:40:06.306Z,-4.08
2022-12-18T10:41:06.265Z,-4.05
2022-12-18T10:42:06.311Z,-4.04
2022-12-18T10:43:06.269Z,-4.02
2022-12-18T10:44:06.268Z,-4.01
2022-12-18T10:45:06.294Z,-3.98
2022-12-18T10:46:06.271Z,-3.96
2022-12-18T10:47:10.321Z,-3.91
2022-12-18T10:48:07.228Z,-3.90
2022-12-18T10:49:06.198Z,-3.89
2022-12-18T10:50:06.230Z,-3.83
2022-12-18T10:51:12.377Z,-3.81
2022-12-18T10:52:07.177Z,-3.75
2022-12-18T10:53:06.155Z,-3.71
2022-12-18T10:54:06.203Z,-3.67
2022-12-18T10:55:06.147Z,-3.61
2022-12-18T10:56:06.129Z,-3.60
2022-12-18T10:57:06.124Z,-3.51
2022-12-18T10:58:06.116Z,-3.54
2022-12-18T10:59:06.108Z,-3.51
2022-12-18T11:00:06.090Z,-3.50
2022-12-18T11:01:07.016Z,-3.47
2022-12-18T11:02:06.182Z,-3.44
2022-12-18T11:03:06.163Z,-3.43
2022-12-18T11:04:06.103Z,-3.38
2022-12-18T11:05:06.035Z,-3.35
2022-12-18T11:06:06.039Z,-3.32
2022-12-18T11:07:06.012Z,-3.32
2022-12-18T11:08:06.012Z,-3.29
2022-12-18T11:09:13.126Z,-3.26
2022-12-18T11:10:07.003Z,-3.26
2022-12-18T11:11:05.950Z,-3.26
2022-12-18T11:12:05.972Z,-3.25
2022-12-18T11:13:05.945Z,-3.23
2022-12-18T11:14:05.995Z,-3.22
2022-12-18T11:15:05.912Z,-3.22
2022-12-18T11:16:06.005Z,-3.23
2022-12-18T11:18:06.946Z,-3.17
2022-12-18T11:19:05.904Z,-3.14
2022-12-18T11:20:05.910Z,-3.13
2022-12-18T11:21:05.843Z,-3.11
2022-12-18T11:22:05.869Z,-3.07
2022-12-18T11:23:05.834Z,-3.05
2022-12-18T11:24:05.879Z,-3.04
2022-12-18T11:25:32.663Z,-3.00
2022-12-18T11:26:06.842Z,-3.02
2022-12-18T11:27:05.804Z,-3.04
2022-12-18T11:28:05.825Z,-3.04
2022-12-18T11:29:05.783Z,-3.02
2022-12-18T11:30:05.783Z,-3.02
2022-12-18T11:31:05.824Z,-3.00
2022-12-18T11:32:05.800Z,-3.00
2022-12-18T11:33:05.740Z,-3.00
2022-12-18T11:34:28.215Z,-3.00
2022-12-18T11:35:06.729Z,-2.99
2022-12-18T11:36:05.758Z,-2.97
2022-12-18T11:37:05.693Z,-2.94
2022-12-18T11:38:05.734Z,-2.94
2022-12-18T11:39:05.689Z,-2.92
2022-12-18T11:40:05.686Z,-2.92
2022-12-18T11:41:05.659Z,-2.92
2022-12-18T11:42:05.678Z,-2.87
2022-12-18T11:43:05.644Z,-2.89
2022-12-18T11:44:05.635Z,-2.89
2022-12-18T11:45:05.617Z,-2.86
2022-12-18T11:46:05.726Z,-2.85
2022-12-18T11:47:05.678Z,-2.79
2022-12-18T11:48:05.592Z,-2.79
2022-12-18T11:49:05.561Z,-2.79
2022-12-18T11:50:05.599Z,-2.78
2022-12-18T11:51:05.558Z,-2.78
2022-12-18T11:52:05.567Z,-2.76
2022-12-18T11:53:06.513Z,-2.76
2022-12-18T11:54:05.546Z,-2.75
2022-12-18T11:55:06.492Z,-2.74
2022-12-18T11:56:05.520Z,-2.72
2022-12-18T11:57:05.482Z,-2.71
2022-12-18T11:58:05.493Z,-2.72
2022-12-18T11:59:05.451Z,-2.71
2022-12-18T12:00:05.484Z,-2.71
2022-12-18T12:01:05.480Z,-2.71
2022-12-18T12:02:05.624Z,-2.68
2022-12-18T12:03:05.568Z,-2.66
2022-12-18T12:04:05.515Z,-2.61
2022-12-18T12:05:05.401Z,-2.61
2022-12-18T12:06:05.421Z,-2.60
2022-12-18T12:07:05.386Z,-2.57
2022-12-18T12:08:05.381Z,-2.57
2022-12-18T12:09:05.371Z,-2.58
2022-12-18T12:10:05.366Z,-2.57
2022-12-18T12:11:05.346Z,-2.56
2022-12-18T12:12:05.372Z,-2.53
2022-12-18T12:13:05.311Z,-2.51
2022-12-18T12:14:05.335Z,-2.48
2022-12-18T12:15:05.300Z,-2.45
2022-12-18T12:16:05.376Z,-2.45
2022-12-18T12:17:05.279Z,-2.42
2022-12-18T12:18:10.915Z,-2.39
2022-12-18T12:19:06.267Z,-2.36
2022-12-18T12:20:05.288Z,-2.33
2022-12-18T12:21:05.245Z,-2.28
2022-12-18T12:22:05.253Z,-2.26
2022-12-18T12:23:05.217Z,-2.28
2022-12-18T12:24:05.224Z,-2.23
2022-12-18T12:25:05.185Z,-2.23
2022-12-18T12:26:05.209Z,-2.21
2022-12-18T12:27:05.163Z,-2.20
2022-12-18T12:28:05.199Z,-2.18
2022-12-18T12:29:05.140Z,-2.16
2022-12-18T12:30:05.157Z,-2.17
2022-12-18T12:31:05.144Z,-2.16
2022-12-18T12:32:05.197Z,-2.14
2022-12-18T12:33:05.118Z,-2.16
2022-12-18T12:34:05.122Z,-2.16
2022-12-18T12:35:09.624Z,-2.14
2022-12-18T12:36:06.175Z,-2.16
2022-12-18T12:37:05.082Z,-2.18
2022-12-18T12:38:05.090Z,-2.17
2022-12-18T12:39:05.041Z,-2.18
2022-12-18T12:40:26.830Z,-2.16
2022-12-18T12:41:06.021Z,-2.17
2022-12-18T12:42:05.047Z,-2.14
2022-12-18T12:43:05.018Z,-2.14
2022-12-18T12:44:05.050Z,-2.14
2022-12-18T12:45:04.970Z,-2.16
2022-12-18T12:46:05.047Z,-2.18
2022-12-18T12:47:04.964Z,-2.17
2022-12-18T12:48:04.967Z,-2.17
2022-12-18T12:49:04.939Z,-2.17
2022-12-18T12:50:05.068Z,-2.20
2022-12-18T12:51:04.920Z,-2.20
2022-12-18T12:52:04.920Z,-2.20
2022-12-18T12:53:04.891Z,-2.18
2022-12-18T12:54:04.918Z,-2.17
2022-12-18T12:55:07.105Z,-2.17
2022-12-18T12:56:05.889Z,-2.13